Time;durP1;ratioP1;P1;durP2;ratioP2;P2;SDS_P1;SDS_P2;PMS_P1;PMS_P2;Temp;Humidity;BMP_temperature;BMP_pressure;BME280_temperature;BME280_humidity;BME280_pressure;Samples;Min_cycle;Max_cycle;Signal;HPM_P1;HPM_P2
2021/12/02 00:01:12;;;;;;;10.65;5.57;;;6.20;99.90;;;;;;5050805;28;20057;-77
2021/12/02 00:03:39;;;;;;;14.82;8.65;;;6.20;99.90;;;;;;5049051;28;20029;-77
2021/12/02 00:06:11;;;;;;;13.43;5.50;;;6.10;99.90;;;;;;5049392;28;20025;-76
2021/12/02 00:08:38;;;;;;;13.02;6.40;;;6.20;99.90;;;;;;5049157;28;20072;-77
2021/12/02 00:11:05;;;;;;;16.40;7.55;;;6.10;99.90;;;;;;5051476;28;20116;-77
2021/12/02 00:13:37;;;;;;;15.82;6.55;;;6.10;99.90;;;;;;5050793;28;20051;-76
2021/12/02 00:21:41;;;;;;;11.80;4.88;;;6.20;99.90;;;;;;5050681;28;20063;-77
2021/12/02 00:24:09;;;;;;;9.30;4.43;;;6.10;99.90;;;;;;5051086;28;20025;-77
2021/12/02 00:26:37;;;;;;;9.85;4.47;;;6.10;99.90;;;;;;5050778;28;20386;-76
2021/12/02 00:29:05;;;;;;;18.77;8.18;;;6.20;99.90;;;;;;5050427;28;20289;-77
2021/12/02 00:31:34;;;;;;;25.02;10.57;;;6.20;99.90;;;;;;5050772;28;20033;-77
2021/12/02 00:34:03;;;;;;;24.55;11.90;;;6.20;99.90;;;;;;5050737;28;20029;-77
2021/12/02 00:36:31;;;;;;;15.13;9.00;;;6.40;99.90;;;;;;5051494;28;20032;-77
2021/12/02 00:38:57;;;;;;;22.63;14.13;;;6.50;99.90;;;;;;5052249;28;20104;-77
2021/12/02 00:41:26;;;;;;;20.45;13.85;;;6.40;99.90;;;;;;5049297;28;20041;-77
2021/12/02 00:43:54;;;;;;;19.55;12.93;;;6.50;99.90;;;;;;5048700;28;20532;-78
2021/12/02 00:46:22;;;;;;;19.23;9.90;;;6.50;99.90;;;;;;5050151;28;20489;-77
2021/12/02 00:48:48;;;;;;;17.63;9.38;;;6.50;99.90;;;;;;5049139;28;20051;-78
2021/12/02 00:51:16;;;;;;;21.83;9.80;;;6.50;99.90;;;;;;5050717;28;20035;-77
2021/12/02 00:53:51;;;;;;;18.33;7.80;;;6.50;99.90;;;;;;5050311;28;20040;-77
2021/12/02 00:56:21;;;;;;;20.77;9.15;;;6.60;99.90;;;;;;5048653;28;20060;-77
2021/12/02 00:58:48;;;;;;;18.10;8.93;;;6.70;99.90;;;;;;5050862;28;20033;-76
2021/12/02 01:01:15;;;;;;;16.85;8.73;;;6.60;99.90;;;;;;5048678;28;20053;-78
2021/12/02 01:03:42;;;;;;;13.55;7.47;;;6.60;99.90;;;;;;5049115;28;20151;-77
2021/12/02 01:06:08;;;;;;;10.98;5.13;;;6.60;99.90;;;;;;5049969;28;20033;-78
2021/12/02 01:08:34;;;;;;;;;;;6.50;99.90;;;;;;5049797;28;20436;-78
2021/12/02 01:11:01;;;;;;;11.65;4.93;;;6.50;99.90;;;;;;5051908;28;19916;-77
2021/12/02 01:13:26;;;;;;;14.55;4.85;;;6.50;99.90;;;;;;5049555;28;20033;-77
2021/12/02 01:15:52;;;;;;;;;;;6.50;99.90;;;;;;5050323;28;20830;-77
2021/12/02 01:18:18;;;;;;;18.63;7.82;;;6.40;99.90;;;;;;5050217;28;19911;-77
2021/12/02 01:20:47;;;;;;;;;;;6.30;99.90;;;;;;5049680;28;20087;-77
2021/12/02 01:23:15;;;;;;;14.55;6.90;;;6.30;99.90;;;;;;5051511;28;19909;-78
2021/12/02 01:25:42;;;;;;;16.00;7.20;;;6.30;99.90;;;;;;5050153;28;20026;-77
2021/12/02 01:28:08;;;;;;;11.07;6.03;;;6.30;99.90;;;;;;5051661;28;20037;-77
2021/12/02 01:30:34;;;;;;;14.00;4.85;;;6.30;99.90;;;;;;5051880;28;20462;-78
2021/12/02 01:33:01;;;;;;;;;;;6.30;99.90;;;;;;5052372;28;20036;-77
2021/12/02 01:35:28;;;;;;;11.73;5.03;;;6.30;99.90;;;;;;5051669;28;19967;-78
2021/12/02 01:37:54;;;;;;;9.80;4.65;;;6.30;99.90;;;;;;5051890;28;20108;-78
2021/12/02 01:40:20;;;;;;;7.82;4.35;;;6.30;99.90;;;;;;5051509;28;20557;-77
2021/12/02 01:42:46;;;;;;;;;;;6.30;99.90;;;;;;5054050;28;20017;-78
2021/12/02 01:45:16;;;;;;;10.67;4.33;;;6.20;99.90;;;;;;5055563;28;19951;-79
2021/12/02 01:47:48;;;;;;;15.98;6.78;;;6.20;99.90;;;;;;5057733;28;20100;-78
2021/12/02 01:50:20;;;;;;;16.23;8.65;;;6.20;99.90;;;;;;5055978;28;20021;-77
2021/12/02 01:52:47;;;;;;;17.30;8.73;;;6.20;99.90;;;;;;5056039;28;20078;-77
2021/12/02 01:55:15;;;;;;;15.00;8.43;;;6.20;99.90;;;;;;5057033;28;20100;-78
2021/12/02 01:58:06;;;;;;;15.65;7.72;;;6.20;99.90;;;;;;5055773;28;20711;-77
2021/12/02 02:00:41;;;;;;;17.10;8.85;;;6.20;99.90;;;;;;5056838;28;20056;-78
2021/12/02 02:03:09;;;;;;;15.50;8.77;;;6.10;99.90;;;;;;5057217;28;20104;-76
2021/12/02 02:05:36;;;;;;;20.75;9.07;;;6.10;99.90;;;;;;5057938;28;20112;-77
2021/12/02 02:08:10;;;;;;;22.70;10.75;;;6.10;99.90;;;;;;5054266;28;20609;-77
2021/12/02 02:10:38;;;;;;;18.83;9.10;;;6.00;99.90;;;;;;5054371;28;20538;-77
2021/12/02 02:13:07;;;;;;;14.27;7.78;;;5.90;99.90;;;;;;5050320;28;20098;-76
2021/12/02 02:15:33;;;;;;;15.00;6.90;;;5.90;99.90;;;;;;5051531;28;20055;-77
2021/12/02 02:20:49;;;;;;;16.08;6.57;;;5.90;99.90;;;;;;5051285;28;20120;-76
2021/12/02 02:23:14;;;;;;;13.50;6.00;;;5.90;99.90;;;;;;5050223;28;20032;-76
2021/12/02 02:25:42;;;;;;;;;;;5.90;99.90;;;;;;5051792;28;20025;-76
2021/12/02 02:28:08;;;;;;;12.57;5.95;;;5.90;99.90;;;;;;5049645;28;20381;-76
2021/12/02 02:30:34;;;;;;;;;;;5.90;99.90;;;;;;5050764;28;20024;-76
2021/12/02 02:32:59;;;;;;;9.73;4.50;;;5.90;99.90;;;;;;5051441;28;20351;-76
2021/12/02 02:35:25;;;;;;;14.05;5.43;;;5.90;99.90;;;;;;5050714;28;20028;-77
2021/12/02 02:37:51;;;;;;;;;;;5.90;99.90;;;;;;5051063;28;20039;-77
2021/12/02 02:40:17;;;;;;;9.10;3.40;;;5.90;99.90;;;;;;5052015;28;19913;-77
2021/12/02 02:42:47;;;;;;;;;;;5.90;99.90;;;;;;5050730;28;20539;-77
2021/12/02 02:45:13;;;;;;;10.18;5.10;;;5.90;99.90;;;;;;5050589;28;20341;-77
2021/12/02 02:47:39;;;;;;;;;;;5.90;99.90;;;;;;5053636;28;20075;-77
2021/12/02 02:50:06;;;;;;;15.73;6.43;;;5.90;99.90;;;;;;5052490;28;19905;-78
2021/12/02 02:52:32;;;;;;;16.23;8.05;;;5.90;99.90;;;;;;5051700;28;20060;-76
2021/12/02 02:54:58;;;;;;;14.73;6.85;;;5.80;99.90;;;;;;5050701;28;20107;-76
2021/12/02 02:57:27;;;;;;;;;;;5.80;99.90;;;;;;5050665;28;20093;-77
2021/12/02 03:00:08;;;;;;;11.88;6.22;;;5.80;99.90;;;;;;5050168;28;19917;-77
2021/12/02 03:02:42;;;;;;;17.27;6.65;;;5.70;99.90;;;;;;5050993;28;20029;-78
2021/12/02 03:05:21;;;;;;;14.70;6.38;;;5.70;99.90;;;;;;5051207;28;20037;-77
2021/12/02 03:07:57;;;;;;;16.75;7.28;;;5.70;99.90;;;;;;5051176;28;20055;-77
2021/12/02 03:10:44;;;;;;;20.52;8.00;;;5.60;99.90;;;;;;5050610;28;20391;-77
2021/12/02 03:13:19;;;;;;;;;;;5.60;99.90;;;;;;5053606;28;20044;-77
2021/12/02 03:18:29;;;;;;;19.52;8.88;;;5.60;99.90;;;;;;5052431;28;20163;-77
2021/12/02 03:20:55;;;;;;;;;;;5.50;99.90;;;;;;5053514;28;20139;-76
2021/12/02 03:23:22;;;;;;;18.93;9.87;;;5.50;99.90;;;;;;5050720;28;20000;-76
2021/12/02 03:25:48;;;;;;;20.08;9.20;;;5.50;99.90;;;;;;5051162;28;20025;-76
2021/12/02 03:28:13;;;;;;;;;;;5.50;99.90;;;;;;5053849;28;20029;-76
2021/12/02 03:30:39;;;;;;;17.65;9.32;;;5.50;99.90;;;;;;5053754;28;19916;-76
2021/12/02 03:33:05;;;;;;;;;;;5.40;99.90;;;;;;5054824;28;20036;-76
2021/12/02 03:35:30;;;;;;;16.92;8.77;;;5.40;99.90;;;;;;5053167;28;20029;-76
2021/12/02 03:37:56;;;;;;;;;;;5.50;99.90;;;;;;5050671;28;20109;-76
2021/12/02 03:40:22;;;;;;;12.65;5.90;;;5.40;99.90;;;;;;5050464;28;19916;-76
2021/12/02 03:42:53;;;;;;;13.80;6.82;;;5.50;99.90;;;;;;5049287;28;20028;-77
2021/12/02 03:45:22;;;;;;;15.82;8.43;;;5.50;99.90;;;;;;5049343;28;20173;-76
2021/12/02 03:47:48;;;;;;;14.60;7.82;;;5.50;99.90;;;;;;5050857;28;20059;-76
2021/12/02 03:50:14;;;;;;;;;;;5.50;99.90;;;;;;5051212;28;20048;-76
2021/12/02 03:52:40;;;;;;;16.25;7.85;;;5.50;99.90;;;;;;5049762;28;19930;-76
2021/12/02 03:55:05;;;;;;;;;;;5.50;99.90;;;;;;5049754;28;20036;-77
2021/12/02 03:57:32;;;;;;;15.50;7.75;;;5.50;99.90;;;;;;5050334;28;19915;-77
2021/12/02 03:59:59;;;;;;;20.33;10.32;;;5.50;99.90;;;;;;5050883;28;20053;-77
2021/12/02 04:02:25;;;;;;;20.60;12.07;;;5.50;99.90;;;;;;5049732;28;20029;-76
2021/12/02 04:04:51;;;;;;;33.85;20.02;;;5.50;99.90;;;;;;5050210;28;20047;-76
2021/12/02 04:07:20;;;;;;;;;;;5.50;99.90;;;;;;5050650;28;20432;-77
2021/12/02 04:09:48;;;;;;;24.83;15.70;;;5.60;99.90;;;;;;5050717;28;19904;-76
2021/12/02 04:15:22;;;;;;;23.70;14.00;;;5.50;99.90;;;;;;5052211;28;20025;-77
2021/12/02 04:17:52;;;;;;;21.80;12.20;;;5.50;99.90;;;;;;5054357;28;20041;-77
2021/12/02 04:20:20;;;;;;;20.95;11.57;;;5.50;99.90;;;;;;5050260;28;20040;-77
2021/12/02 04:22:46;;;;;;;18.27;10.52;;;5.50;99.90;;;;;;5052184;28;20120;-76
2021/12/02 04:25:12;;;;;;;;;;;5.60;99.90;;;;;;5051217;28;20068;-78
2021/12/02 04:27:39;;;;;;;16.48;9.35;;;5.50;99.90;;;;;;5051892;28;19905;-77
2021/12/02 04:30:07;;;;;;;16.23;9.30;;;5.60;99.90;;;;;;5052347;28;20028;-77
2021/12/02 04:32:33;;;;;;;16.38;9.85;;;5.50;99.90;;;;;;5053073;28;20481;-77
2021/12/02 04:34:59;;;;;;;;;;;5.50;99.90;;;;;;5051545;28;20044;-77
2021/12/02 04:37:24;;;;;;;14.27;7.78;;;5.50;99.90;;;;;;5051612;28;19912;-78
2021/12/02 04:39:50;;;;;;;15.07;8.85;;;5.50;99.90;;;;;;5051191;28;20098;-78
2021/12/02 04:42:16;;;;;;;12.65;7.75;;;5.40;99.90;;;;;;5054378;28;20036;-77
2021/12/02 04:44:41;;;;;;;;;;;5.40;99.90;;;;;;5054015;28;20024;-77
2021/12/02 04:47:07;;;;;;;13.40;7.70;;;5.40;99.90;;;;;;5054015;28;20387;-78
2021/12/02 04:49:33;;;;;;;;;;;5.30;99.90;;;;;;5051471;28;20566;-77
2021/12/02 04:51:59;;;;;;;26.13;14.88;;;5.30;99.90;;;;;;5047965;28;19919;-77
2021/12/02 04:54:24;;;;;;;;;;;5.30;99.90;;;;;;5049119;28;20421;-77
2021/12/02 04:56:50;;;;;;;21.10;13.70;;;5.30;99.90;;;;;;5049315;28;20413;-78
2021/12/02 04:59:16;;;;;;;20.10;12.80;;;5.40;99.90;;;;;;5049187;28;20029;-78
2021/12/02 05:01:41;;;;;;;;;;;5.30;99.90;;;;;;5055490;28;20571;-78
2021/12/02 05:04:08;;;;;;;8.85;5.18;;;5.30;99.90;;;;;;5049025;28;20337;-77
2021/12/02 05:06:34;;;;;;;10.77;6.47;;;5.40;99.90;;;;;;5045894;28;20115;-78
2021/12/02 05:09:00;;;;;;;;;;;5.50;99.90;;;;;;5045845;28;20170;-78
2021/12/02 05:11:25;;;;;;;10.13;6.05;;;5.40;99.90;;;;;;5045976;28;19959;-77
2021/12/02 05:13:51;;;;;;;;;;;5.30;99.90;;;;;;5046354;28;20025;-78
2021/12/02 05:16:16;;;;;;;48.83;24.10;;;5.40;99.90;;;;;;5047840;28;20369;-77
2021/12/02 05:18:42;;;;;;;35.97;21.52;;;5.30;99.90;;;;;;5049466;28;20033;-78
2021/12/02 05:21:08;;;;;;;;;;;5.20;99.90;;;;;;5050667;28;20646;-78
2021/12/02 05:23:34;;;;;;;25.77;15.02;;;5.20;99.90;;;;;;5050968;28;20393;-77
2021/12/02 05:25:59;;;;;;;14.68;7.97;;;5.20;99.90;;;;;;5050299;28;20077;-77
2021/12/02 05:28:25;;;;;;;;;;;5.30;99.90;;;;;;5050857;28;20047;-77
2021/12/02 05:30:51;;;;;;;11.88;4.63;;;5.30;99.90;;;;;;5051389;28;19918;-77
2021/12/02 05:33:17;;;;;;;;;;;5.30;99.90;;;;;;5051115;28;20052;-78
2021/12/02 05:35:43;;;;;;;6.88;3.38;;;5.30;99.90;;;;;;5050380;28;20323;-77
2021/12/02 05:38:09;;;;;;;8.50;4.57;;;5.30;99.90;;;;;;5050048;28;20168;-77
2021/12/02 05:40:35;;;;;;;;;;;5.30;99.90;;;;;;5050516;28;20037;-77
2021/12/02 05:43:01;;;;;;;12.98;5.28;;;5.40;99.90;;;;;;5050554;28;20506;-77
2021/12/02 05:45:26;;;;;;;;;;;5.30;99.90;;;;;;5049995;28;20112;-77
2021/12/02 05:47:52;;;;;;;11.93;5.97;;;5.40;99.90;;;;;;5050904;28;20003;-76
2021/12/02 05:50:17;;;;;;;12.07;6.07;;;5.30;99.90;;;;;;5052170;28;20070;-77
2021/12/02 05:52:43;;;;;;;;;;;5.30;99.90;;;;;;5053005;28;20379;-76
2021/12/02 05:55:09;;;;;;;12.80;6.97;;;5.30;99.90;;;;;;5051116;28;19915;-78
2021/12/02 05:57:34;;;;;;;;;;;5.40;99.90;;;;;;5052039;28;20025;-78
2021/12/02 06:00:00;;;;;;;31.40;16.75;;;5.20;99.90;;;;;;5051882;28;19943;-77
2021/12/02 06:02:27;;;;;;;;;;;5.20;99.90;;;;;;5052218;28;20055;-78
2021/12/02 06:04:53;;;;;;;39.95;23.75;;;5.10;99.90;;;;;;5052250;28;19908;-77
2021/12/02 06:07:20;;;;;;;42.72;25.10;;;5.20;99.90;;;;;;5050936;28;20114;-77
2021/12/02 06:09:46;;;;;;;29.05;15.90;;;5.20;99.90;;;;;;5050704;28;20025;-77
2021/12/02 06:12:13;;;;;;;22.55;11.90;;;5.20;99.90;;;;;;5050955;28;20036;-78
2021/12/02 06:14:38;;;;;;;18.27;10.63;;;5.30;99.90;;;;;;5049731;28;20029;-77
2021/12/02 06:17:04;;;;;;;;;;;5.20;99.90;;;;;;5049302;28;20728;-77
2021/12/02 06:19:30;;;;;;;19.98;11.93;;;5.20;99.90;;;;;;5050405;28;19919;-77
2021/12/02 06:21:55;;;;;;;;;;;5.20;99.90;;;;;;5050602;28;20041;-77
2021/12/02 06:24:29;;;;;;;21.25;12.95;;;5.20;99.90;;;;;;5051635;28;20338;-77
2021/12/02 06:26:56;;;;;;;22.33;12.10;;;5.20;99.90;;;;;;5052228;28;20393;-78
2021/12/02 06:29:22;;;;;;;19.45;11.32;;;5.10;99.90;;;;;;5050843;28;20405;-79
2021/12/02 06:31:47;;;;;;;;;;;5.10;99.90;;;;;;5051668;28;20033;-78
2021/12/02 06:34:13;;;;;;;18.20;10.35;;;5.10;99.90;;;;;;5049772;28;20384;-78
2021/12/02 06:36:38;;;;;;;;;;;5.10;99.90;;;;;;5051035;28;20052;-78
2021/12/02 06:39:05;;;;;;;17.33;11.23;;;5.00;99.90;;;;;;5051869;28;19912;-77
2021/12/02 06:41:32;;;;;;;26.33;16.42;;;5.20;99.90;;;;;;5050367;28;20039;-78
2021/12/02 06:43:58;;;;;;;33.10;18.55;;;5.10;99.90;;;;;;5049175;28;20025;-77
2021/12/02 06:46:23;;;;;;;;;;;5.20;99.90;;;;;;5050815;28;20568;-78
2021/12/02 06:48:49;;;;;;;36.03;18.67;;;5.20;99.90;;;;;;5048746;28;19916;-77
2021/12/02 06:51:15;;;;;;;;;;;5.20;99.90;;;;;;5051470;28;20029;-78
2021/12/02 06:53:41;;;;;;;44.35;24.63;;;5.20;99.90;;;;;;5050240;28;19912;-78
2021/12/02 06:56:07;;;;;;;;;;;5.20;99.90;;;;;;5049936;28;20025;-78
2021/12/02 06:58:33;;;;;;;41.92;24.83;;;5.30;99.90;;;;;;5050488;28;20022;-77
2021/12/02 07:00:58;;;;;;;;;;;5.40;99.90;;;;;;5049161;28;20041;-78
2021/12/02 07:03:24;;;;;;;37.05;22.25;;;5.40;99.90;;;;;;5050246;28;19970;-78
2021/12/02 07:05:50;;;;;;;;;;;5.50;99.90;;;;;;5049262;28;20095;-77
2021/12/02 07:08:15;;;;;;;79.82;41.92;;;5.40;99.90;;;;;;5048677;28;19915;-78
2021/12/02 07:10:41;;;;;;;;;;;5.50;99.90;;;;;;5050474;28;20024;-78
2021/12/02 07:13:08;;;;;;;73.95;39.38;;;5.50;99.90;;;;;;5050007;28;19951;-77
2021/12/02 07:15:35;;;;;;;54.65;33.88;;;5.60;99.90;;;;;;5049161;28;20124;-78
2021/12/02 07:18:01;;;;;;;48.05;27.45;;;5.60;99.90;;;;;;5049103;28;20060;-78
2021/12/02 07:20:30;;;;;;;42.95;25.65;;;5.70;99.90;;;;;;5049599;28;20148;-78
2021/12/02 07:22:59;;;;;;;36.85;23.75;;;5.70;99.90;;;;;;5048698;28;20021;-78
2021/12/02 07:25:26;;;;;;;35.03;20.63;;;5.90;99.90;;;;;;5048100;28;20029;-77
2021/12/02 07:27:52;;;;;;;39.33;21.80;;;6.20;99.90;;;;;;5048272;28;20079;-77
2021/12/02 07:30:18;;;;;;;;;;;6.50;99.90;;;;;;5049845;28;20061;-78
2021/12/02 07:32:47;;;;;;;34.08;20.50;;;6.80;99.90;;;;;;5049193;28;19955;-77
2021/12/02 07:35:15;;;;;;;39.90;21.65;;;7.00;99.90;;;;;;5049446;28;20506;-78
2021/12/02 07:37:43;;;;;;;51.20;24.33;;;7.00;99.90;;;;;;5048878;28;20032;-78
2021/12/02 07:40:10;;;;;;;49.22;24.42;;;7.10;99.90;;;;;;5046948;28;20561;-77
2021/12/02 07:42:36;;;;;;;44.40;24.10;;;7.20;99.90;;;;;;5047844;28;20478;-79
2021/12/02 07:45:04;;;;;;;42.15;21.92;;;7.30;99.90;;;;;;5048945;28;20032;-77
2021/12/02 07:47:30;;;;;;;52.50;31.83;;;7.40;99.90;;;;;;5048722;28;20505;-77
2021/12/02 07:49:56;;;;;;;41.50;25.00;;;7.50;99.90;;;;;;5047596;28;20021;-78
2021/12/02 07:52:24;;;;;;;;;;;7.50;99.90;;;;;;5047136;28;20039;-77
2021/12/02 07:54:52;;;;;;;21.40;12.98;;;7.60;99.90;;;;;;5048411;28;19913;-77
2021/12/02 07:57:18;;;;;;;16.63;9.88;;;7.60;99.90;;;;;;5048718;28;20559;-77
2021/12/02 07:59:47;;;;;;;19.83;9.48;;;7.60;99.90;;;;;;5048099;28;20103;-77
2021/12/02 08:02:15;;;;;;;15.57;8.35;;;7.60;99.90;;;;;;5047494;28;20039;-78
2021/12/02 08:04:40;;;;;;;12.65;8.15;;;7.50;99.90;;;;;;5048417;28;20032;-78
2021/12/02 08:07:06;;;;;;;;;;;7.50;99.90;;;;;;5049031;28;20032;-78
2021/12/02 08:09:32;;;;;;;11.50;6.97;;;7.50;99.90;;;;;;5047199;28;20003;-78
2021/12/02 08:11:59;;;;;;;;;;;7.50;99.90;;;;;;5047374;28;20071;-79
2021/12/02 08:14:25;;;;;;;;;;;7.50;99.90;;;;;;5047673;28;19915;-78
2021/12/02 08:16:50;;;;;;;14.85;7.85;;;7.60;99.90;;;;;;5047885;28;19905;-78
2021/12/02 08:19:16;;;;;;;;;;;7.60;99.90;;;;;;5047554;28;20025;-78
2021/12/02 08:21:42;;;;;;;17.73;10.05;;;7.60;99.90;;;;;;5047762;28;20387;-77
2021/12/02 08:24:08;;;;;;;;;;;7.70;99.90;;;;;;5047573;28;20124;-78
2021/12/02 08:26:35;;;;;;;33.95;20.02;;;7.70;99.90;;;;;;5048022;28;20391;-77
2021/12/02 08:29:02;;;;;;;34.28;23.42;;;7.70;99.90;;;;;;5048136;28;20053;-77
2021/12/02 08:31:28;;;;;;;34.42;22.50;;;7.70;99.90;;;;;;5046743;28;20148;-78
2021/12/02 08:33:54;;;;;;;;;;;7.70;99.90;;;;;;5048591;28;20565;-78
2021/12/02 08:36:24;;;;;;;38.15;25.02;;;7.70;99.90;;;;;;5046400;28;19913;-77
2021/12/02 08:38:50;;;;;;;38.67;23.17;;;7.80;99.90;;;;;;5047867;28;20402;-78
2021/12/02 08:41:18;;;;;;;35.90;21.23;;;7.80;99.90;;;;;;5047043;28;20032;-79
2021/12/02 08:43:45;;;;;;;33.60;21.10;;;7.80;99.90;;;;;;5047350;28;20029;-77
2021/12/02 08:46:11;;;;;;;32.78;20.40;;;7.80;99.90;;;;;;5046256;28;20075;-77
2021/12/02 08:48:37;;;;;;;;;;;7.90;99.90;;;;;;5046435;28;20024;-78
2021/12/02 08:51:02;;;;;;;32.45;18.63;;;7.90;99.90;;;;;;5047360;28;20270;-78
2021/12/02 08:53:28;;;;;;;29.48;18.38;;;8.00;99.90;;;;;;5045922;28;20048;-78
2021/12/02 08:55:53;;;;;;;;;;;8.10;99.90;;;;;;5046386;28;20043;-78
2021/12/02 08:58:19;;;;;;;28.88;16.75;;;8.10;99.90;;;;;;5047774;28;19959;-78
2021/12/02 09:00:46;;;;;;;;;;;8.20;99.90;;;;;;5045843;28;20052;-78
2021/12/02 09:03:15;;;;;;;28.88;15.02;;;8.20;99.90;;;;;;5047288;28;19925;-78
2021/12/02 09:05:41;;;;;;;23.90;16.05;;;8.20;99.90;;;;;;5046426;28;20504;-78
2021/12/02 09:08:06;;;;;;;22.58;14.20;;;8.20;99.90;;;;;;5047028;28;20053;-78
2021/12/02 09:10:33;;;;;;;;;;;8.30;99.90;;;;;;5048599;28;20526;-77
2021/12/02 09:12:59;;;;;;;23.67;11.60;;;8.30;99.90;;;;;;5045442;28;20366;-78
2021/12/02 09:15:24;;;;;;;;;;;8.20;99.90;;;;;;5046098;28;20082;-78
2021/12/02 09:17:51;;;;;;;12.57;6.78;;;8.20;99.90;;;;;;5047527;28;19913;-78
2021/12/02 09:20:17;;;;;;;12.07;5.40;;;8.30;99.90;;;;;;5047769;28;20191;-77
2021/12/02 09:22:45;;;;;;;11.60;5.57;;;8.30;99.90;;;;;;5046954;28;20028;-79
2021/12/02 09:25:12;;;;;;;12.05;4.75;;;8.20;99.90;;;;;;5047908;28;20026;-77
2021/12/02 09:27:37;;;;;;;9.23;4.82;;;8.20;99.90;;;;;;5054493;28;20036;-77
2021/12/02 09:30:04;;;;;;;;;;;8.10;99.90;;;;;;5049624;28;20024;-78
2021/12/02 09:32:31;;;;;;;9.85;4.90;;;8.10;99.90;;;;;;5046291;28;19912;-78
2021/12/02 09:34:57;;;;;;;8.43;4.18;;;8.10;99.90;;;;;;5045925;28;20079;-78
2021/12/02 09:37:22;;;;;;;;;;;8.10;99.90;;;;;;5045747;28;20420;-78
2021/12/02 09:39:48;;;;;;;7.05;3.47;;;8.10;99.90;;;;;;5047235;28;19915;-78
2021/12/02 09:42:14;;;;;;;;;;;8.20;99.90;;;;;;5046582;28;20041;-78
2021/12/02 09:44:43;;;;;;;7.50;3.50;;;8.30;99.90;;;;;;5045790;28;19974;-78
2021/12/02 09:47:08;;;;;;;6.72;3.72;;;8.30;99.90;;;;;;5045590;28;20413;-78
2021/12/02 09:49:34;;;;;;;;;;;8.30;99.90;;;;;;5047640;28;20033;-77
2021/12/02 09:52:03;;;;;;;7.40;3.53;;;8.30;99.90;;;;;;5045205;28;20385;-78
2021/12/02 09:54:39;;;;;;;10.00;4.72;;;8.30;99.90;;;;;;5045563;28;20095;-78
2021/12/02 09:57:07;;;;;;;;;;;8.30;99.90;;;;;;5047402;28;20052;-78
2021/12/02 10:02:05;;;;;;;9.70;6.82;;;8.20;99.90;;;;;;5048657;28;20045;-77
2021/12/02 10:04:32;;;;;;;9.50;6.20;;;8.20;99.90;;;;;;5046559;28;20075;-77
2021/12/02 10:10:17;;;;;;;12.35;5.97;;;8.30;99.90;;;;;;5051939;28;20449;-77
2021/12/02 10:13:21;;;;;;;7.30;4.60;;;8.30;99.90;;;;;;5047636;28;20622;-77
2021/12/02 10:16:08;;;;;;;12.70;6.28;;;8.40;99.90;;;;;;5042543;28;20080;-77
2021/12/02 10:18:59;;;;;;;18.48;11.35;;;8.50;99.90;;;;;;5047323;28;20036;-77
2021/12/02 10:21:30;;;;;;;16.33;10.18;;;8.50;99.90;;;;;;5042433;28;20885;-76
2021/12/02 10:24:01;;;;;;;18.17;9.82;;;8.60;99.90;;;;;;5044978;28;20051;-77
2021/12/02 10:26:27;;;;;;;19.38;11.40;;;8.60;99.90;;;;;;5046826;28;20041;-77
2021/12/02 10:28:53;;;;;;;;;;;8.50;99.90;;;;;;5048981;28;20040;-77
2021/12/02 10:31:22;;;;;;;18.33;11.13;;;8.50;99.90;;;;;;5043530;28;19913;-76
2021/12/02 10:33:57;;;;;;;25.77;13.77;;;8.50;99.90;;;;;;5046900;28;20480;-76
2021/12/02 10:36:31;;;;;;;21.23;13.40;;;8.40;99.90;;;;;;5046011;28;20108;-77
2021/12/02 10:39:09;;;;;;;14.27;9.32;;;8.30;99.90;;;;;;5048182;28;20025;-77
2021/12/02 10:41:35;;;;;;;18.13;12.90;;;8.20;99.90;;;;;;5042965;28;20106;-77
2021/12/02 10:44:05;;;;;;;;;;;8.20;99.90;;;;;;5046302;28;20112;-77
2021/12/02 10:46:31;;;;;;;20.58;11.50;;;8.10;99.90;;;;;;5044269;28;20444;-77
2021/12/02 10:48:57;;;;;;;19.05;11.80;;;8.10;99.90;;;;;;5046720;28;20036;-77
2021/12/02 10:51:37;;;;;;;;;;;8.10;99.90;;;;;;5047102;28;20053;-76
2021/12/02 10:54:13;;;;;;;16.90;12.52;;;8.00;99.90;;;;;;5046655;28;19913;-77
2021/12/02 10:56:41;;;;;;;19.63;13.27;;;8.00;99.90;;;;;;5051460;28;20477;-76
2021/12/02 10:59:34;;;;;;;17.92;12.77;;;7.90;99.90;;;;;;5046031;28;20064;-77
2021/12/02 11:02:07;;;;;;;30.50;19.23;;;7.90;99.90;;;;;;5046172;28;20048;-77
2021/12/02 11:04:42;;;;;;;37.42;22.75;;;7.90;99.90;;;;;;5042142;28;20037;-77
2021/12/02 11:07:11;;;;;;;30.58;18.95;;;8.00;99.90;;;;;;5047737;28;20124;-77
2021/12/02 11:09:39;;;;;;;20.95;12.85;;;8.00;99.90;;;;;;5040634;28;20112;-77
2021/12/02 11:12:15;;;;;;;15.63;9.70;;;8.00;99.90;;;;;;5044802;28;20044;-77
2021/12/02 11:15:01;;;;;;;10.53;6.10;;;8.00;99.90;;;;;;5041682;28;20796;-77
2021/12/02 11:17:30;;;;;;;11.20;6.13;;;8.00;99.90;;;;;;5044874;28;21026;-76
2021/12/02 11:19:58;;;;;;;12.35;6.25;;;8.00;99.90;;;;;;5047409;28;20112;-77
2021/12/02 11:22:27;;;;;;;10.57;4.72;;;8.00;99.90;;;;;;5025226;28;20041;-77
2021/12/02 11:24:53;;;;;;;8.10;4.28;;;8.00;99.90;;;;;;5026859;28;20494;-77
2021/12/02 11:27:20;;;;;;;;;;;8.00;99.90;;;;;;5045541;28;20094;-77
2021/12/02 11:30:07;;;;;;;11.73;4.43;;;7.90;99.90;;;;;;5046246;28;19928;-78
2021/12/02 11:32:43;;;;;;;12.43;5.75;;;7.90;99.90;;;;;;5045810;28;20040;-77
2021/12/02 11:35:17;;;;;;;8.48;4.93;;;7.90;99.90;;;;;;5044676;28;20128;-77
2021/12/02 11:37:46;;;;;;;13.45;7.38;;;7.80;99.90;;;;;;5046579;28;20127;-76
2021/12/02 11:40:19;;;;;;;12.23;6.47;;;7.90;99.90;;;;;;5048763;28;20024;-77
2021/12/02 11:42:48;;;;;;;9.63;5.90;;;7.80;99.90;;;;;;5050832;28;20115;-78
2021/12/02 11:45:15;;;;;;;11.75;5.80;;;7.80;99.90;;;;;;5050202;28;20017;-78
2021/12/02 11:47:41;;;;;;;12.40;5.60;;;7.80;99.90;;;;;;5050001;28;20592;-78
2021/12/02 11:50:08;;;;;;;;;;;7.80;99.90;;;;;;5049220;28;20477;-78
2021/12/02 11:52:38;;;;;;;10.63;6.35;;;7.80;99.90;;;;;;5050105;28;19908;-79
2021/12/02 11:55:10;;;;;;;8.80;6.20;;;7.80;99.90;;;;;;5049006;28;20032;-78
2021/12/02 11:57:36;;;;;;;10.88;5.72;;;7.80;99.90;;;;;;5049526;28;20932;-77
2021/12/02 12:00:08;;;;;;;;;;;7.80;99.90;;;;;;5049252;28;20049;-78
2021/12/02 12:02:34;;;;;;;12.48;5.78;;;7.80;99.90;;;;;;5048707;28;19908;-77
2021/12/02 12:05:01;;;;;;;;;;;7.70;99.90;;;;;;5049598;28;20040;-77
2021/12/02 12:07:48;;;;;;;12.02;5.95;;;7.70;99.90;;;;;;5049598;28;19908;-78
2021/12/02 12:10:27;;;;;;;9.88;7.10;;;7.70;99.90;;;;;;5049475;28;20078;-78
2021/12/02 12:13:10;;;;;;;9.80;6.90;;;7.70;99.90;;;;;;5050849;28;20029;-78
2021/12/02 12:15:46;;;;;;;13.60;6.53;;;7.70;99.90;;;;;;5049248;28;20033;-79
2021/12/02 12:18:24;;;;;;;9.90;6.68;;;7.60;99.90;;;;;;5049600;28;20791;-79
2021/12/02 12:20:59;;;;;;;7.82;5.00;;;7.60;99.90;;;;;;5049231;28;20136;-78
2021/12/02 12:23:30;;;;;;;5.95;3.50;;;7.60;99.90;;;;;;5051401;28;20040;-78
2021/12/02 12:26:08;;;;;;;5.63;2.85;;;7.60;99.90;;;;;;5054293;28;20512;-78
2021/12/02 12:29:03;;;;;;;13.13;3.83;;;7.60;99.90;;;;;;5048559;28;20502;-78
2021/12/02 12:31:29;;;;;;;4.70;2.50;;;7.50;99.90;;;;;;5050335;28;20025;-77
2021/12/02 12:33:56;;;;;;;3.90;2.38;;;7.50;99.90;;;;;;5050475;28;20413;-78
2021/12/02 12:36:42;;;;;;;3.75;2.45;;;7.50;99.90;;;;;;5050802;28;20029;-78
2021/12/02 12:39:18;;;;;;;4.50;2.50;;;7.50;99.90;;;;;;5050064;28;20021;-78
2021/12/02 12:42:06;;;;;;;4.43;3.28;;;7.50;99.90;;;;;;5050050;28;20394;-78
2021/12/02 12:44:51;;;;;;;10.43;6.00;;;7.50;99.90;;;;;;5048437;28;20075;-77
2021/12/02 12:47:19;;;;;;;11.30;5.68;;;7.50;99.90;;;;;;5048297;28;20029;-78
2021/12/02 12:49:46;;;;;;;6.63;3.80;;;7.40;99.90;;;;;;5047216;28;20021;-78
2021/12/02 12:52:16;;;;;;;7.85;3.10;;;7.40;99.90;;;;;;5047657;28;20033;-78
2021/12/02 12:54:42;;;;;;;34.72;17.08;;;7.40;99.90;;;;;;5048433;28;20025;-78
2021/12/02 12:57:08;;;;;;;;;;;7.50;99.90;;;;;;5049040;28;20056;-78
2021/12/02 12:59:54;;;;;;;28.15;18.95;;;7.40;99.90;;;;;;5048072;28;19948;-78
2021/12/02 13:02:20;;;;;;;38.08;18.90;;;7.40;99.90;;;;;;5048570;28;20045;-78
2021/12/02 13:04:54;;;;;;;;;;;7.40;99.90;;;;;;5049430;28;20551;-77
2021/12/02 13:07:21;;;;;;;38.50;22.13;;;7.40;99.90;;;;;;5048251;28;19971;-78
2021/12/02 13:10:11;;;;;;;35.72;19.70;;;7.40;99.90;;;;;;5048780;28;20056;-78
2021/12/02 13:12:36;;;;;;;30.67;19.27;;;7.40;99.90;;;;;;5048886;28;20036;-78
2021/12/02 13:15:03;;;;;;;;;;;7.40;99.90;;;;;;5050488;28;20029;-78
2021/12/02 13:17:41;;;;;;;26.85;17.08;;;7.40;99.90;;;;;;5048710;28;19908;-77
2021/12/02 13:20:17;;;;;;;21.05;14.77;;;7.30;99.90;;;;;;5048519;28;20029;-78
2021/12/02 13:22:45;;;;;;;20.25;12.82;;;7.30;99.90;;;;;;5050379;28;20490;-78
2021/12/02 13:25:41;;;;;;;19.17;12.05;;;7.30;99.90;;;;;;5048975;28;20025;-77
2021/12/02 13:28:39;;;;;;;19.40;12.65;;;7.30;99.90;;;;;;5050160;28;20028;-78
2021/12/02 13:31:08;;;;;;;23.15;13.57;;;7.30;99.90;;;;;;5050401;28;20106;-77
2021/12/02 13:33:37;;;;;;;23.27;15.10;;;7.30;99.90;;;;;;5050179;28;20079;-78